Time;durP1;ratioP1;P1;durP2;ratioP2;P2;SDS_P1;SDS_P2;PMS_P1;PMS_P2;Temp;Humidity;BMP_temperature;BMP_pressure;BME280_temperature;BME280_humidity;BME280_pressure;Samples;Min_cycle;Max_cycle;Signal;HPM_P1;HPM_P2
2021/05/13 00:01:07;;;;;;;1.20;1.10;;;12.40;99.90;;;;;;6232929;28;20246;-71
2021/05/13 00:04:09;;;;;;;1.97;1.30;;;12.40;99.90;;;;;;6233980;28;20307;-72
2021/05/13 00:07:12;;;;;;;1.50;1.40;;;12.40;99.90;;;;;;6213764;28;20360;-71
2021/05/13 00:10:21;;;;;;;1.23;1.13;;;12.40;99.90;;;;;;6230795;28;20750;-70
2021/05/13 00:13:23;;;;;;;1.17;1.10;;;12.40;99.90;;;;;;6231786;28;20230;-71
2021/05/13 00:16:31;;;;;;;1.10;1.00;;;12.40;99.90;;;;;;6232726;28;20227;-72
2021/05/13 00:19:33;;;;;;;1.23;1.13;;;12.40;99.90;;;;;;6214120;28;20235;-72
2021/05/13 00:22:36;;;;;;;1.20;1.10;;;12.40;99.90;;;;;;6231779;28;20274;-72
2021/05/13 00:25:40;;;;;;;1.23;1.13;;;12.40;99.90;;;;;;6232123;28;20237;-71
2021/05/13 00:28:42;;;;;;;4.63;1.20;;;12.40;99.90;;;;;;6214076;28;20339;-70
2021/05/13 00:31:45;;;;;;;0.80;0.80;;;12.40;99.90;;;;;;6231611;28;20839;-71
2021/05/13 00:34:47;;;;;;;0.70;0.60;;;12.40;99.90;;;;;;6232253;28;20303;-71
2021/05/13 00:37:49;;;;;;;1.80;0.80;;;12.40;99.90;;;;;;6232104;28;20262;-71
2021/05/13 00:40:53;;;;;;;0.60;0.60;;;12.40;99.90;;;;;;6225463;28;20231;-71
2021/05/13 00:43:56;;;;;;;0.60;0.60;;;12.40;99.90;;;;;;6188927;28;20586;-71
2021/05/13 00:46:59;;;;;;;0.73;0.70;;;12.40;99.90;;;;;;6173885;28;20271;-71
2021/05/13 00:50:05;;;;;;;0.80;0.80;;;12.40;99.90;;;;;;6218115;28;20229;-71
2021/05/13 00:53:09;;;;;;;0.70;0.67;;;12.40;99.90;;;;;;6213228;28;20275;-70
2021/05/13 00:56:13;;;;;;;0.53;0.53;;;12.40;99.90;;;;;;6231021;28;20271;-70
2021/05/13 00:59:17;;;;;;;0.60;0.60;;;12.40;99.90;;;;;;6230380;28;20224;-71
2021/05/13 01:02:20;;;;;;;0.67;0.50;;;12.40;99.90;;;;;;6236113;28;20302;-70
2021/05/13 01:05:24;;;;;;;0.43;0.43;;;12.40;99.90;;;;;;6212463;28;20723;-72
2021/05/13 01:08:27;;;;;;;0.40;0.40;;;12.40;99.90;;;;;;6231178;28;20321;-72
2021/05/13 01:11:29;;;;;;;0.40;0.40;;;12.40;99.90;;;;;;6231066;28;20247;-71
2021/05/13 01:17:53;;;;;;;0.77;0.50;;;12.30;99.90;;;;;;6212531;28;20253;-71
2021/05/13 01:20:55;;;;;;;0.50;0.40;;;12.30;99.90;;;;;;6229756;28;20238;-71
2021/05/13 01:23:58;;;;;;;0.70;0.60;;;12.30;99.90;;;;;;6230449;28;20584;-71
2021/05/13 01:27:00;;;;;;;0.30;0.30;;;12.30;99.90;;;;;;6232313;28;20239;-71
2021/05/13 01:30:03;;;;;;;0.67;0.50;;;12.30;99.90;;;;;;6229559;28;20221;-71
2021/05/13 01:33:06;;;;;;;0.50;0.37;;;12.30;99.90;;;;;;6213491;28;20241;-70
2021/05/13 01:36:09;;;;;;;0.30;0.30;;;12.30;99.90;;;;;;6188388;28;20358;-70
2021/05/13 01:39:12;;;;;;;0.37;0.30;;;12.30;99.90;;;;;;6220951;28;20212;-70
2021/05/13 01:42:14;;;;;;;0.50;0.30;;;12.30;99.90;;;;;;6212617;28;20253;-70
2021/05/13 01:45:18;;;;;;;0.20;0.20;;;12.30;99.90;;;;;;6205803;28;20236;-71
2021/05/13 01:48:21;;;;;;;0.70;0.30;;;12.30;99.90;;;;;;6188480;28;20300;-70
2021/05/13 01:51:24;;;;;;;0.30;0.30;;;12.30;99.90;;;;;;6204630;28;20233;-70
2021/05/13 01:54:29;;;;;;;0.20;0.20;;;12.30;99.90;;;;;;6223943;28;20693;-70
2021/05/13 01:57:32;;;;;;;0.20;0.20;;;12.30;99.90;;;;;;6229402;28;20222;-70
2021/05/13 02:00:35;;;;;;;1.30;0.20;;;12.30;99.90;;;;;;6229669;28;20240;-70
2021/05/13 02:03:38;;;;;;;0.47;0.20;;;12.30;99.90;;;;;;6232124;28;20224;-71
2021/05/13 02:06:40;;;;;;;0.20;0.20;;;12.30;99.90;;;;;;6230196;28;20217;-70
2021/05/13 02:09:43;;;;;;;0.17;0.17;;;12.30;99.90;;;;;;6230067;28;20229;-71
2021/05/13 02:12:45;;;;;;;0.20;0.20;;;12.30;99.90;;;;;;6212036;28;20278;-71
2021/05/13 02:15:48;;;;;;;0.30;0.20;;;12.20;99.90;;;;;;6228676;28;20248;-71
2021/05/13 02:18:50;;;;;;;0.20;0.20;;;12.20;99.90;;;;;;6228784;28;20237;-71
2021/05/13 02:21:53;;;;;;;1.03;0.30;;;12.20;99.90;;;;;;6229353;28;20229;-71
2021/05/13 02:24:55;;;;;;;0.10;0.10;;;12.20;99.90;;;;;;6210995;28;20690;-73
2021/05/13 02:28:00;;;;;;;0.37;0.27;;;12.20;99.90;;;;;;6229525;28;20320;-71
2021/05/13 02:31:03;;;;;;;0.20;0.20;;;12.20;99.90;;;;;;6229001;28;20703;-72
2021/05/13 02:34:05;;;;;;;0.97;0.40;;;12.10;99.90;;;;;;6235379;28;20600;-73
2021/05/13 02:37:08;;;;;;;0.60;0.10;;;12.10;99.90;;;;;;6243066;28;20381;-73
2021/05/13 02:40:13;;;;;;;1.47;0.17;;;12.00;99.90;;;;;;6242511;28;20314;-73
2021/05/13 02:43:16;;;;;;;0.20;0.20;;;12.00;99.90;;;;;;6210839;28;20821;-72
2021/05/13 02:46:18;;;;;;;0.20;0.20;;;11.90;99.90;;;;;;6210705;28;20311;-74
2021/05/13 02:49:20;;;;;;;1.03;0.37;;;11.90;99.90;;;;;;6218132;28;20340;-74
2021/05/13 02:52:23;;;;;;;0.10;0.10;;;11.80;99.90;;;;;;6258796;28;20239;-73
2021/05/13 02:55:25;;;;;;;0.30;0.20;;;11.80;99.90;;;;;;6258636;28;20742;-74
2021/05/13 02:58:27;;;;;;;0.50;0.13;;;11.80;99.90;;;;;;6240037;28;20315;-73
2021/05/13 03:01:30;;;;;;;0.20;0.20;;;11.80;99.90;;;;;;6241131;28;20699;-73
2021/05/13 03:04:33;;;;;;;0.10;0.10;;;11.80;99.90;;;;;;6240832;28;20593;-73
2021/05/13 03:07:42;;;;;;;0.20;0.20;;;11.80;99.90;;;;;;6238875;28;20230;-74
2021/05/13 03:10:45;;;;;;;0.77;0.20;;;11.80;99.90;;;;;;6224634;28;20602;-73
2021/05/13 03:13:51;;;;;;;0.20;0.20;;;11.70;99.90;;;;;;6257171;28;20711;-73
2021/05/13 03:16:55;;;;;;;0.10;0.10;;;11.70;99.90;;;;;;6258928;28;20599;-73
2021/05/13 03:19:59;;;;;;;0.33;0.10;;;11.60;99.90;;;;;;6239295;28;20232;-72
2021/05/13 03:23:05;;;;;;;0.20;0.20;;;11.60;99.90;;;;;;6223626;28;20235;-72
2021/05/13 03:26:07;;;;;;;0.17;0.17;;;11.60;99.90;;;;;;6238664;28;20369;-72
2021/05/13 03:29:09;;;;;;;0.10;0.10;;;11.60;99.90;;;;;;6241293;28;20244;-71
2021/05/13 03:32:12;;;;;;;0.63;0.10;;;11.50;99.90;;;;;;6223302;28;20675;-72
2021/05/13 03:35:14;;;;;;;0.10;0.10;;;11.50;99.90;;;;;;6238430;28;20255;-71
2021/05/13 03:38:17;;;;;;;0.20;0.20;;;11.50;99.90;;;;;;6239710;28;20279;-71
2021/05/13 03:41:20;;;;;;;0.20;0.10;;;11.50;99.90;;;;;;6231256;28;20267;-71
2021/05/13 03:44:22;;;;;;;0.63;0.20;;;11.50;99.90;;;;;;6217132;28;20767;-71
2021/05/13 03:47:24;;;;;;;0.10;0.10;;;11.50;99.90;;;;;;6236355;28;20711;-71
2021/05/13 03:50:27;;;;;;;0.10;0.10;;;11.40;99.90;;;;;;6234699;28;20244;-71
2021/05/13 03:53:29;;;;;;;0.20;0.20;;;11.40;99.90;;;;;;6235482;28;20327;-70
2021/05/13 03:56:31;;;;;;;0.30;0.20;;;11.40;99.90;;;;;;6217415;28;20667;-71
2021/05/13 03:59:38;;;;;;;0.10;0.10;;;11.40;99.90;;;;;;6234962;28;20228;-70
2021/05/13 04:02:41;;;;;;;3.07;0.20;;;11.40;99.90;;;;;;6216243;28;20233;-71
2021/05/13 04:05:44;;;;;;;0.27;0.27;;;11.40;99.90;;;;;;6217140;28;20239;-70
2021/05/13 04:08:49;;;;;;;0.10;0.10;;;11.40;99.90;;;;;;6218164;28;20228;-71
2021/05/13 04:11:53;;;;;;;0.20;0.20;;;11.40;99.90;;;;;;6216553;28;20232;-70
2021/05/13 04:14:57;;;;;;;0.57;0.10;;;11.30;99.90;;;;;;6216075;28;20254;-70
2021/05/13 04:18:00;;;;;;;0.10;0.10;;;11.30;99.90;;;;;;6216983;28;20236;-70
2021/05/13 04:21:03;;;;;;;0.20;0.20;;;11.30;99.90;;;;;;6234870;28;20704;-71
2021/05/13 04:24:06;;;;;;;0.20;0.20;;;11.30;99.90;;;;;;6215909;28;20279;-70
2021/05/13 04:27:08;;;;;;;0.10;0.10;;;11.30;99.90;;;;;;6216428;28;20661;-70
2021/05/13 04:30:11;;;;;;;0.47;0.20;;;11.30;99.90;;;;;;6235603;28;20282;-70
2021/05/13 04:33:13;;;;;;;0.40;0.20;;;11.30;99.90;;;;;;6231859;28;20236;-69
2021/05/13 04:36:17;;;;;;;0.30;0.20;;;11.30;99.90;;;;;;6191879;28;20212;-70
2021/05/13 04:39:19;;;;;;;0.20;0.20;;;11.30;99.90;;;;;;6206159;28;20283;-69
2021/05/13 04:42:22;;;;;;;0.23;0.10;;;11.40;99.90;;;;;;6199199;28;20247;-71
2021/05/13 04:45:24;;;;;;;0.13;0.13;;;11.30;99.90;;;;;;6192142;28;20234;-70
2021/05/13 04:48:28;;;;;;;3.50;0.30;;;11.30;99.90;;;;;;6208968;28;20870;-71
2021/05/13 04:51:33;;;;;;;0.13;0.13;;;11.30;99.90;;;;;;6174670;28;20239;-71
2021/05/13 04:54:36;;;;;;;0.20;0.20;;;11.30;99.90;;;;;;6175632;28;20232;-70
2021/05/13 04:57:38;;;;;;;0.57;0.20;;;11.30;99.90;;;;;;6209433;28;20228;-70
2021/05/13 05:00:41;;;;;;;0.10;0.10;;;11.30;99.90;;;;;;6207732;28;20239;-70
2021/05/13 05:03:44;;;;;;;0.20;0.20;;;11.30;99.90;;;;;;6191403;28;20244;-70
2021/05/13 05:06:46;;;;;;;0.20;0.20;;;11.30;99.90;;;;;;6190838;28;20238;-71
2021/05/13 05:09:48;;;;;;;0.30;0.20;;;11.40;99.90;;;;;;6191654;28;20228;-71
2021/05/13 05:12:50;;;;;;;0.37;0.20;;;11.40;99.90;;;;;;6209810;28;20224;-69
2021/05/13 05:15:53;;;;;;;0.30;0.10;;;11.40;99.90;;;;;;6207411;28;20729;-70
2021/05/13 05:18:55;;;;;;;0.20;0.20;;;11.40;99.90;;;;;;6207905;28;20621;-70
2021/05/13 05:21:58;;;;;;;0.13;0.13;;;11.40;99.90;;;;;;6214671;28;20297;-70
2021/05/13 05:25:00;;;;;;;0.30;0.30;;;11.40;99.90;;;;;;6232367;28;20224;-71
2021/05/13 05:28:03;;;;;;;1.40;0.20;;;11.40;99.90;;;;;;6215997;28;20342;-69
2021/05/13 05:31:05;;;;;;;0.10;0.10;;;11.40;99.90;;;;;;6233372;28;20235;-70
2021/05/13 05:34:08;;;;;;;0.17;0.17;;;11.40;99.90;;;;;;6239482;28;20563;-69
2021/05/13 05:37:10;;;;;;;0.13;0.10;;;11.40;99.90;;;;;;6238542;28;20234;-69
2021/05/13 05:40:16;;;;;;;0.10;0.10;;;11.40;99.90;;;;;;6254625;28;20246;-69
2021/05/13 05:43:18;;;;;;;0.20;0.20;;;11.40;99.90;;;;;;6214184;28;20637;-68
2021/05/13 05:46:21;;;;;;;0.20;0.20;;;11.40;99.90;;;;;;6211782;28;20329;-68
2021/05/13 05:49:23;;;;;;;0.20;0.20;;;11.40;99.90;;;;;;6235892;28;20228;-69
2021/05/13 05:52:26;;;;;;;1.13;0.30;;;11.40;99.90;;;;;;6236353;28;20231;-68
2021/05/13 05:55:29;;;;;;;1.17;0.20;;;11.40;99.90;;;;;;6237153;28;20601;-68
2021/05/13 05:58:31;;;;;;;1.47;0.27;;;11.30;99.90;;;;;;6256130;28;20235;-69
2021/05/13 06:01:37;;;;;;;0.10;0.10;;;11.30;99.90;;;;;;6256492;28;20223;-68
2021/05/13 06:04:41;;;;;;;0.10;0.10;;;11.30;99.90;;;;;;6256980;28;20242;-68
2021/05/13 06:07:43;;;;;;;0.37;0.20;;;11.30;99.90;;;;;;6239020;28;20226;-68
2021/05/13 06:10:46;;;;;;;0.63;0.20;;;11.40;99.90;;;;;;6255306;28;20224;-68
2021/05/13 06:13:48;;;;;;;0.23;0.20;;;11.40;99.90;;;;;;6239381;28;20230;-69
2021/05/13 06:16:50;;;;;;;0.30;0.20;;;11.40;99.90;;;;;;6256370;28;20230;-68
2021/05/13 06:19:55;;;;;;;0.57;0.20;;;11.30;99.90;;;;;;6235928;28;20236;-68
2021/05/13 06:22:58;;;;;;;2.10;0.20;;;11.40;99.90;;;;;;6237316;28;20326;-68
2021/05/13 06:26:00;;;;;;;1.10;0.37;;;11.40;99.90;;;;;;6255057;28;20238;-68
2021/05/13 06:29:07;;;;;;;0.60;0.30;;;11.50;99.90;;;;;;6256706;28;20231;-68
2021/05/13 06:32:10;;;;;;;1.20;0.20;;;11.50;99.90;;;;;;6256019;28;20230;-68
2021/05/13 06:35:14;;;;;;;0.50;0.20;;;11.40;99.90;;;;;;6258793;28;20275;-69
2021/05/13 06:38:16;;;;;;;0.33;0.20;;;11.40;99.90;;;;;;6256690;28;20305;-68
2021/05/13 06:41:19;;;;;;;1.40;0.30;;;11.50;99.90;;;;;;6230614;28;20227;-68
2021/05/13 06:44:21;;;;;;;3.83;0.53;;;11.50;99.90;;;;;;6233355;28;20663;-69
2021/05/13 06:47:23;;;;;;;1.37;0.30;;;11.50;99.90;;;;;;6214864;28;20227;-69
2021/05/13 06:50:26;;;;;;;0.37;0.20;;;11.50;99.90;;;;;;6200335;28;20303;-69
2021/05/13 06:53:28;;;;;;;1.03;0.20;;;11.50;99.90;;;;;;6207883;28;20244;-69
2021/05/13 06:56:30;;;;;;;0.33;0.20;;;11.50;99.90;;;;;;6208192;28;20717;-69
2021/05/13 06:59:33;;;;;;;0.60;0.20;;;11.50;99.90;;;;;;6207616;28;20233;-69
2021/05/13 07:02:36;;;;;;;0.20;0.20;;;11.60;99.90;;;;;;6208180;28;20240;-69
2021/05/13 07:05:38;;;;;;;0.27;0.20;;;11.60;99.90;;;;;;6206601;28;20224;-69
2021/05/13 07:08:40;;;;;;;0.10;0.10;;;11.60;99.90;;;;;;6207796;28;20728;-69
2021/05/13 07:11:43;;;;;;;0.60;0.20;;;11.70;99.90;;;;;;6207158;28;20231;-69
2021/05/13 07:14:49;;;;;;;1.03;0.20;;;11.70;99.90;;;;;;6190120;28;20725;-69
2021/05/13 07:17:52;;;;;;;0.20;0.20;;;11.70;99.90;;;;;;6174466;28;20286;-70
2021/05/13 07:20:54;;;;;;;0.20;0.17;;;11.70;99.90;;;;;;6247057;28;20246;-70
2021/05/13 07:23:56;;;;;;;0.27;0.27;;;11.70;99.90;;;;;;6244828;28;20231;-70
2021/05/13 07:26:59;;;;;;;0.50;0.20;;;11.80;99.90;;;;;;6263655;28;20227;-70
2021/05/13 07:30:01;;;;;;;1.30;0.20;;;11.90;99.90;;;;;;6261922;28;20319;-70
2021/05/13 07:33:04;;;;;;;0.20;0.20;;;12.00;99.90;;;;;;6258673;28;20232;-69
2021/05/13 07:36:08;;;;;;;1.20;0.20;;;12.00;99.90;;;;;;6259524;28;20294;-69
2021/05/13 07:39:10;;;;;;;0.10;0.10;;;12.10;99.90;;;;;;6258300;28;20204;-69
2021/05/13 07:42:13;;;;;;;1.77;0.13;;;12.10;99.90;;;;;;6209329;28;20231;-69
2021/05/13 07:45:19;;;;;;;0.87;0.47;;;12.10;99.90;;;;;;6235854;28;20546;-69
2021/05/13 07:48:21;;;;;;;0.20;0.20;;;12.10;99.90;;;;;;6234169;28;20297;-70
2021/05/13 07:51:23;;;;;;;0.37;0.20;;;12.10;99.90;;;;;;6239728;28;20286;-69
2021/05/13 07:54:25;;;;;;;0.30;0.30;;;12.20;99.90;;;;;;6242435;28;20304;-69
2021/05/13 07:57:28;;;;;;;0.63;0.20;;;12.30;99.90;;;;;;6241578;28;20301;-69
2021/05/13 08:00:30;;;;;;;0.30;0.10;;;12.40;99.90;;;;;;6241561;28;20334;-69
2021/05/13 08:03:33;;;;;;;0.93;0.40;;;12.50;99.90;;;;;;6261391;28;20735;-70
2021/05/13 08:06:35;;;;;;;0.13;0.13;;;12.60;99.90;;;;;;6259449;28;20232;-70
2021/05/13 08:09:37;;;;;;;1.30;0.20;;;12.60;99.90;;;;;;6259044;28;20223;-70
2021/05/13 08:12:41;;;;;;;0.50;0.20;;;12.70;99.90;;;;;;6259974;28;20274;-69
2021/05/13 08:15:43;;;;;;;2.00;0.20;;;12.70;99.90;;;;;;6239002;28;20253;-69
2021/05/13 08:18:45;;;;;;;0.20;0.20;;;12.60;99.90;;;;;;6240455;28;20773;-70
2021/05/13 08:21:48;;;;;;;0.20;0.20;;;12.60;99.90;;;;;;6260991;28;20228;-70
2021/05/13 08:24:50;;;;;;;0.20;0.20;;;12.70;99.90;;;;;;6258502;28;20221;-69
2021/05/13 08:27:53;;;;;;;0.77;0.13;;;12.70;99.90;;;;;;6242395;28;20431;-69
2021/05/13 08:30:55;;;;;;;0.40;0.20;;;12.70;99.90;;;;;;6257926;28;20317;-70
2021/05/13 08:33:57;;;;;;;1.43;0.30;;;12.60;99.90;;;;;;6258319;28;20316;-70
2021/05/13 08:37:00;;;;;;;2.23;0.30;;;12.70;99.90;;;;;;6258108;28;21024;-70
2021/05/13 08:40:05;;;;;;;1.17;0.43;;;12.80;99.90;;;;;;6257265;28;20236;-69
2021/05/13 08:43:24;;;;;;;0.10;0.10;;;12.80;99.90;;;;;;6219254;28;20233;-70
2021/05/13 08:46:26;;;;;;;1.07;0.27;;;12.90;99.90;;;;;;6232876;28;20228;-69
2021/05/13 08:49:28;;;;;;;0.10;0.10;;;12.90;99.90;;;;;;6220665;28;20231;-69
2021/05/13 08:52:31;;;;;;;0.87;0.20;;;12.90;99.90;;;;;;6238649;28;20342;-69
2021/05/13 08:55:35;;;;;;;1.33;0.20;;;13.00;99.90;;;;;;6224492;28;20336;-70
2021/05/13 08:58:38;;;;;;;0.20;0.20;;;13.10;99.90;;;;;;6258525;28;20316;-69
2021/05/13 09:01:55;;;;;;;3.10;0.30;;;13.10;99.90;;;;;;6256374;28;20716;-70
2021/05/13 09:05:00;;;;;;;0.20;0.20;;;13.10;99.90;;;;;;6258657;28;20232;-70
2021/05/13 09:08:06;;;;;;;0.20;0.20;;;12.90;99.90;;;;;;6242721;28;20638;-70
2021/05/13 09:11:13;;;;;;;0.13;0.13;;;12.90;99.90;;;;;;6240762;28;20243;-70
2021/05/13 09:14:30;;;;;;;2.27;0.30;;;13.00;99.90;;;;;;6240761;28;21108;-70
2021/05/13 09:17:34;;;;;;;1.33;0.40;;;13.00;99.90;;;;;;6225133;28;20589;-69
2021/05/13 09:20:39;;;;;;;0.20;0.20;;;13.00;99.90;;;;;;6238498;28;20607;-70
2021/05/13 09:23:41;;;;;;;0.20;0.20;;;13.00;99.90;;;;;;6257813;28;20220;-71
2021/05/13 09:26:44;;;;;;;0.37;0.17;;;13.00;99.90;;;;;;6259634;28;20241;-71
2021/05/13 09:29:47;;;;;;;0.77;0.30;;;13.00;99.90;;;;;;6242604;28;20228;-71
2021/05/13 09:32:49;;;;;;;0.20;0.20;;;13.00;99.90;;;;;;6243842;28;20585;-71
2021/05/13 09:35:52;;;;;;;0.83;0.30;;;13.00;99.90;;;;;;6259970;28;20243;-71
2021/05/13 09:38:54;;;;;;;2.83;0.30;;;13.10;99.90;;;;;;6241203;28;20247;-71
2021/05/13 09:42:01;;;;;;;1.17;0.20;;;13.10;99.90;;;;;;6227455;28;20244;-70
2021/05/13 09:45:06;;;;;;;0.20;0.20;;;13.20;99.90;;;;;;6233319;28;20930;-71
2021/05/13 09:48:09;;;;;;;0.43;0.23;;;13.20;99.90;;;;;;6233978;28;20222;-70
2021/05/13 09:51:36;;;;;;;0.33;0.33;;;13.30;99.90;;;;;;6260443;28;20222;-72
2021/05/13 09:54:39;;;;;;;1.43;0.40;;;13.30;99.90;;;;;;6241486;28;20244;-72
2021/05/13 09:57:48;;;;;;;0.30;0.30;;;13.40;99.90;;;;;;6225819;28;20231;-71
2021/05/13 10:00:51;;;;;;;0.20;0.20;;;13.60;99.90;;;;;;6239247;28;20235;-71
2021/05/13 10:03:55;;;;;;;1.70;0.30;;;13.60;99.90;;;;;;6257861;28;20241;-71
2021/05/13 10:06:58;;;;;;;0.30;0.30;;;13.60;99.90;;;;;;6242084;28;20325;-71
2021/05/13 10:10:01;;;;;;;0.20;0.20;;;13.80;99.90;;;;;;6241332;28;20598;-71
2021/05/13 10:13:06;;;;;;;0.20;0.20;;;14.20;99.90;;;;;;6222261;28;20335;-71
2021/05/13 10:16:09;;;;;;;2.10;0.30;;;14.50;99.90;;;;;;6193923;28;20645;-71
2021/05/13 10:19:23;;;;;;;2.63;0.30;;;14.60;99.90;;;;;;6218883;28;20236;-72
2021/05/13 10:22:26;;;;;;;0.20;0.20;;;14.80;99.90;;;;;;6265616;28;20234;-72
2021/05/13 10:25:31;;;;;;;0.30;0.30;;;14.90;99.90;;;;;;6241922;28;20331;-70
2021/05/13 10:28:34;;;;;;;0.10;0.10;;;14.90;99.90;;;;;;6239200;28;20235;-71
2021/05/13 10:31:39;;;;;;;0.20;0.20;;;14.60;99.90;;;;;;6259623;28;20245;-71
2021/05/13 10:34:43;;;;;;;0.40;0.27;;;14.50;99.90;;;;;;6239325;28;20311;-71
2021/05/13 10:38:00;;;;;;;0.20;0.20;;;14.30;99.90;;;;;;6257241;28;20230;-71
2021/05/13 10:41:28;;;;;;;0.30;0.20;;;14.30;99.90;;;;;;6232511;28;20313;-71
2021/05/13 10:44:35;;;;;;;0.20;0.20;;;14.30;99.90;;;;;;6231895;28;20781;-71
2021/05/13 10:47:37;;;;;;;0.60;0.40;;;14.20;99.90;;;;;;6248614;28;20226;-71
2021/05/13 10:50:47;;;;;;;0.17;0.17;;;14.10;99.90;;;;;;6213464;28;20697;-71
2021/05/13 10:53:49;;;;;;;1.90;0.33;;;13.90;99.90;;;;;;6232236;28;20790;-71
2021/05/13 10:57:20;;;;;;;0.77;0.20;;;13.80;99.90;;;;;;6218869;28;20230;-71
2021/05/13 11:00:23;;;;;;;0.90;0.30;;;13.70;99.90;;;;;;6237313;28;20297;-71
2021/05/13 11:03:28;;;;;;;1.13;0.30;;;13.50;99.90;;;;;;6220228;28;20222;-71
2021/05/13 11:06:58;;;;;;;0.63;0.40;;;13.50;99.90;;;;;;6260075;28;20688;-71
2021/05/13 11:10:03;;;;;;;0.63;0.30;;;13.50;99.90;;;;;;6257941;28;20610;-70
2021/05/13 11:13:10;;;;;;;0.30;0.30;;;13.40;99.90;;;;;;6259028;28;20763;-71
2021/05/13 11:16:44;;;;;;;0.20;0.20;;;13.30;99.90;;;;;;6259757;28;20320;-71
2021/05/13 11:19:46;;;;;;;1.40;0.30;;;13.30;99.90;;;;;;6250326;28;20237;-70
2021/05/13 11:22:58;;;;;;;0.20;0.20;;;13.30;99.90;;;;;;6218721;28;20242;-71
2021/05/13 11:26:11;;;;;;;0.40;0.30;;;13.30;99.90;;;;;;6236413;28;20597;-71
2021/05/13 11:29:14;;;;;;;0.30;0.30;;;13.40;99.90;;;;;;6235309;28;20239;-71
2021/05/13 11:32:17;;;;;;;1.70;0.30;;;13.40;99.90;;;;;;6235656;28;20633;-72
2021/05/13 11:35:23;;;;;;;0.40;0.30;;;13.50;99.90;;;;;;6234699;28;20319;-72
2021/05/13 11:38:25;;;;;;;0.30;0.20;;;13.60;99.90;;;;;;6200825;28;20976;-70
2021/05/13 11:41:28;;;;;;;1.90;0.20;;;13.70;99.90;;;;;;6231676;28;20228;-71
2021/05/13 11:44:30;;;;;;;1.00;0.27;;;13.70;99.90;;;;;;6216929;28;20233;-71
2021/05/13 11:47:32;;;;;;;0.37;0.30;;;13.60;99.90;;;;;;6217370;28;20283;-71
2021/05/13 11:50:34;;;;;;;0.23;0.23;;;13.70;99.90;;;;;;6232154;28;20225;-71
2021/05/13 11:53:41;;;;;;;0.40;0.40;;;13.60;99.90;;;;;;6239197;28;20223;-69
2021/05/13 11:56:44;;;;;;;1.13;0.40;;;13.50;99.90;;;;;;6241208;28;20604;-70
2021/05/13 11:59:52;;;;;;;0.70;0.40;;;13.40;99.90;;;;;;6256627;28;20237;-71
2021/05/13 12:03:19;;;;;;;1.90;0.30;;;13.40;99.90;;;;;;6219680;28;20240;-70
2021/05/13 12:06:22;;;;;;;0.97;0.30;;;13.30;99.90;;;;;;6194219;28;20371;-72
2021/05/13 12:09:26;;;;;;;0.57;0.30;;;13.10;99.90;;;;;;6205061;28;20588;-71
2021/05/13 12:12:33;;;;;;;1.00;0.30;;;13.00;99.90;;;;;;6210658;28;20236;-71
2021/05/13 12:15:36;;;;;;;0.30;0.30;;;13.00;99.90;;;;;;6213222;28;20228;-70
2021/05/13 12:18:43;;;;;;;0.63;0.50;;;13.00;99.90;;;;;;6207298;28;20221;-71
2021/05/13 12:22:02;;;;;;;0.53;0.30;;;13.00;99.90;;;;;;6178360;28;20225;-70
2021/05/13 12:25:06;;;;;;;0.20;0.20;;;12.80;99.90;;;;;;6209579;28;20233;-70
2021/05/13 12:28:09;;;;;;;0.40;0.40;;;12.70;99.90;;;;;;6197345;28;20235;-71
2021/05/13 12:31:24;;;;;;;0.23;0.23;;;12.70;99.90;;;;;;6208527;28;20724;-70
2021/05/13 12:34:32;;;;;;;1.47;0.30;;;12.70;99.90;;;;;;6175316;28;20245;-72
2021/05/13 12:37:34;;;;;;;0.20;0.20;;;12.80;99.90;;;;;;6208423;28;20578;-70
2021/05/13 12:40:37;;;;;;;0.63;0.30;;;12.70;99.90;;;;;;6213326;28;20251;-70
2021/05/13 12:43:39;;;;;;;0.27;0.27;;;12.70;99.90;;;;;;6234091;28;20247;-71
2021/05/13 12:46:49;;;;;;;0.73;0.30;;;12.70;99.90;;;;;;6234533;28;20238;-71
2021/05/13 12:50:01;;;;;;;0.40;0.30;;;12.70;99.90;;;;;;6217237;28;20325;-71
2021/05/13 12:53:14;;;;;;;0.23;0.23;;;12.80;99.90;;;;;;6216216;28;20239;-71
2021/05/13 12:56:29;;;;;;;1.03;0.30;;;12.90;99.90;;;;;;6214791;28;20260;-71
2021/05/13 12:59:31;;;;;;;0.30;0.30;;;12.90;99.90;;;;;;6232468;28;20228;-71
2021/05/13 13:02:34;;;;;;;0.27;0.27;;;13.00;99.90;;;;;;6215046;28;20569;-71
2021/05/13 13:05:36;;;;;;;1.23;0.40;;;13.10;99.90;;;;;;6214735;28;20228;-71
2021/05/13 13:08:44;;;;;;;0.33;0.20;;;13.20;99.90;;;;;;6214019;28;20710;-70
2021/05/13 13:11:47;;;;;;;0.97;0.40;;;13.20;99.90;;;;;;6213749;28;20344;-70
2021/05/13 13:14:53;;;;;;;2.53;0.30;;;13.40;99.90;;;;;;6213156;28;20243;-69
2021/05/13 13:18:05;;;;;;;0.30;0.30;;;13.50;99.90;;;;;;6213778;28;20237;-71
2021/05/13 13:21:15;;;;;;;0.30;0.30;;;13.60;99.90;;;;;;6235200;28;20572;-71
2021/05/13 13:24:20;;;;;;;0.23;0.23;;;13.60;99.90;;;;;;6232489;28;20218;-69
2021/05/13 13:27:25;;;;;;;0.30;0.30;;;13.70;99.90;;;;;;6233562;28;20278;-72
2021/05/13 13:30:27;;;;;;;0.30;0.30;;;13.60;99.90;;;;;;6217130;28;20251;-72
2021/05/13 13:33:32;;;;;;;0.57;0.40;;;13.70;99.90;;;;;;6233544;28;20218;-71
2021/05/13 13:36:34;;;;;;;0.47;0.47;;;13.70;99.90;;;;;;6218162;28;20770;-70
2021/05/13 13:39:36;;;;;;;0.30;0.30;;;13.80;99.90;;;;;;6232033;28;20230;-70
2021/05/13 13:42:39;;;;;;;0.20;0.20;;;13.60;99.90;;;;;;6192766;28;20234;-70
2021/05/13 13:45:43;;;;;;;0.30;0.30;;;13.60;99.90;;;;;;6190100;28;20357;-71
2021/05/13 13:48:46;;;;;;;0.40;0.40;;;13.70;99.90;;;;;;6208536;28;20231;-70
2021/05/13 13:51:48;;;;;;;0.23;0.23;;;13.70;99.90;;;;;;6258045;28;20758;-71
2021/05/13 13:54:51;;;;;;;0.60;0.27;;;13.80;99.90;;;;;;6237702;28;20294;-70
2021/05/13 13:57:53;;;;;;;0.20;0.20;;;13.80;99.90;;;;;;6238659;28;20244;-72
2021/05/13 14:00:57;;;;;;;0.20;0.20;;;13.80;99.90;;;;;;6254459;28;20236;-72
2021/05/13 14:04:00;;;;;;;1.60;0.30;;;13.90;99.90;;;;;;6256545;28;20326;-72
2021/05/13 14:07:03;;;;;;;1.60;0.20;;;13.80;99.90;;;;;;6254821;28;20761;-73
2021/05/13 14:10:06;;;;;;;0.20;0.20;;;13.80;99.90;;;;;;6239213;28;20229;-72
2021/05/13 14:13:08;;;;;;;0.63;0.47;;;13.70;99.90;;;;;;6256885;28;20329;-71
2021/05/13 14:16:15;;;;;;;0.20;0.20;;;13.60;99.90;;;;;;6236263;28;20240;-72
2021/05/13 14:19:18;;;;;;;1.23;0.30;;;13.50;99.90;;;;;;6235835;28;20242;-72
2021/05/13 14:22:20;;;;;;;1.43;0.30;;;13.60;99.90;;;;;;6253935;28;20231;-71
2021/05/13 14:25:23;;;;;;;0.70;0.53;;;13.80;99.90;;;;;;6252726;28;20698;-73
2021/05/13 14:28:25;;;;;;;0.47;0.40;;;14.00;99.90;;;;;;6237987;28;20234;-72
2021/05/13 14:31:27;;;;;;;0.87;0.30;;;14.30;99.90;;;;;;6259042;28;20238;-72
2021/05/13 14:34:30;;;;;;;0.37;0.37;;;14.30;99.90;;;;;;6258847;28;20230;-71
2021/05/13 14:37:32;;;;;;;0.47;0.47;;;14.50;99.90;;;;;;6258986;28;20305;-72
2021/05/13 14:40:37;;;;;;;0.30;0.30;;;14.60;99.90;;;;;;6240152;28;20227;-71
2021/05/13 14:43:40;;;;;;;0.40;0.40;;;14.80;99.90;;;;;;6219644;28;20219;-71
2021/05/13 14:46:42;;;;;;;0.63;0.33;;;15.00;99.90;;;;;;6213567;28;20231;-71
2021/05/13 14:49:46;;;;;;;0.30;0.30;;;14.60;99.90;;;;;;6235396;28;20301;-71
2021/05/13 14:52:49;;;;;;;0.20;0.20;;;14.50;99.90;;;;;;6234617;28;20323;-70
2021/05/13 14:55:51;;;;;;;1.90;0.40;;;14.50;99.90;;;;;;6235455;28;20281;-71
2021/05/13 14:58:53;;;;;;;0.30;0.30;;;14.40;99.90;;;;;;6238247;28;20929;-71
2021/05/13 15:02:17;;;;;;;0.50;0.30;;;14.30;99.90;;;;;;6235954;28;20262;-71
2021/05/13 15:05:19;;;;;;;0.47;0.40;;;14.00;99.90;;;;;;6235776;28;20241;-71
2021/05/13 15:08:21;;;;;;;0.37;0.30;;;13.80;99.90;;;;;;6234058;28;20711;-71
2021/05/13 15:11:23;;;;;;;1.13;0.30;;;13.70;99.90;;;;;;6234047;28;20721;-71
2021/05/13 15:14:26;;;;;;;1.60;0.30;;;13.60;99.90;;;;;;6234408;28;20261;-71
2021/05/13 15:17:28;;;;;;;0.57;0.30;;;13.60;99.90;;;;;;6236620;28;20254;-70
2021/05/13 15:20:32;;;;;;;1.53;0.50;;;13.30;99.90;;;;;;6236549;28;20227;-70
2021/05/13 15:23:38;;;;;;;1.13;0.40;;;13.20;99.90;;;;;;6235890;28;20259;-71
2021/05/13 15:26:42;;;;;;;0.30;0.30;;;13.10;99.90;;;;;;6234692;28;20597;-70
2021/05/13 15:29:45;;;;;;;0.40;0.30;;;13.10;99.90;;;;;;6234467;28;20229;-70
2021/05/13 15:32:47;;;;;;;0.43;0.40;;;13.00;99.90;;;;;;6236164;28;20233;-70
2021/05/13 15:35:50;;;;;;;1.20;0.50;;;12.90;99.90;;;;;;6216290;28;20237;-71
2021/05/13 15:38:53;;;;;;;0.40;0.27;;;12.90;99.90;;;;;;6234661;28;20248;-71
2021/05/13 15:41:55;;;;;;;7.13;0.73;;;12.80;99.90;;;;;;6230671;28;20258;-71
2021/05/13 15:44:57;;;;;;;1.13;0.30;;;12.80;99.90;;;;;;6235071;28;20292;-71
2021/05/13 15:48:09;;;;;;;1.03;0.40;;;12.60;99.90;;;;;;6216366;28;20334;-70
2021/05/13 15:51:11;;;;;;;0.30;0.30;;;12.60;99.90;;;;;;6194417;28;20254;-70
2021/05/13 15:54:13;;;;;;;0.40;0.40;;;12.60;99.90;;;;;;6192732;28;20206;-71
2021/05/13 15:57:16;;;;;;;0.77;0.40;;;12.60;99.90;;;;;;6191397;28;20217;-70
2021/05/13 16:00:19;;;;;;;0.77;0.30;;;12.60;99.90;;;;;;6208694;28;20250;-71
2021/05/13 16:03:23;;;;;;;0.30;0.30;;;12.60;99.90;;;;;;6211104;28;20240;-70